sensor_id;sensor_type;location;lat;lon;timestamp;temperature;humidity
41678;DHT22;27364;49.026;8.712;2023-04-07T00:00:49;7.10;99.90
41678;DHT22;27364;49.026;8.712;2023-04-07T00:03:15;7.10;99.90
41678;DHT22;27364;49.026;8.712;2023-04-07T00:05:41;7.00;99.90
41678;DHT22;27364;49.026;8.712;2023-04-07T00:08:06;7.00;99.90
41678;DHT22;27364;49.026;8.712;2023-04-07T00:10:32;7.00;99.90
41678;DHT22;27364;49.026;8.712;2023-04-07T00:12:57;7.00;99.90
41678;DHT22;27364;49.026;8.712;2023-04-07T00:15:23;7.00;99.90
41678;DHT22;27364;49.026;8.712;2023-04-07T00:17:49;7.00;99.90
41678;DHT22;27364;49.026;8.712;2023-04-07T00:20:14;7.00;99.90
41678;DHT22;27364;49.026;8.712;2023-04-07T00:22:40;7.10;99.90
41678;DHT22;27364;49.026;8.712;2023-04-07T00:25:06;7.10;99.90
41678;DHT22;27364;49.026;8.712;2023-04-07T00:27:32;7.00;99.90
41678;DHT22;27364;49.026;8.712;2023-04-07T00:29:57;7.10;99.90
41678;DHT22;27364;49.026;8.712;2023-04-07T00:32:23;7.10;99.90
41678;DHT22;27364;49.026;8.712;2023-04-07T00:34:48;7.00;99.90
41678;DHT22;27364;49.026;8.712;2023-04-07T00:37:14;7.00;99.90
41678;DHT22;27364;49.026;8.712;2023-04-07T00:39:40;7.00;99.90
41678;DHT22;27364;49.026;8.712;2023-04-07T00:42:06;7.00;99.90
41678;DHT22;27364;49.026;8.712;2023-04-07T00:44:32;7.10;99.90
41678;DHT22;27364;49.026;8.712;2023-04-07T00:46:58;7.10;99.90
41678;DHT22;27364;49.026;8.712;2023-04-07T00:49:25;7.10;99.90
41678;DHT22;27364;49.026;8.712;2023-04-07T00:51:53;7.10;99.90
41678;DHT22;27364;49.026;8.712;2023-04-07T00:54:19;7.10;99.90
41678;DHT22;27364;49.026;8.712;2023-04-07T00:56:46;7.20;99.90
41678;DHT22;27364;49.026;8.712;2023-04-07T00:59:11;7.20;99.90
41678;DHT22;27364;49.026;8.712;2023-04-07T01:01:44;7.30;99.90
41678;DHT22;27364;49.026;8.712;2023-04-07T01:04:19;7.20;99.90
41678;DHT22;27364;49.026;8.712;2023-04-07T01:06:49;7.20;99.90
41678;DHT22;27364;49.026;8.712;2023-04-07T01:09:20;7.30;99.90
41678;DHT22;27364;49.026;8.712;2023-04-07T01:14:53;7.30;99.90
41678;DHT22;27364;49.026;8.712;2023-04-07T01:17:20;7.30;99.90
41678;DHT22;27364;49.026;8.712;2023-04-07T01:19:55;7.30;99.90
41678;DHT22;27364;49.026;8.712;2023-04-07T01:22:28;7.30;99.90
41678;DHT22;27364;49.026;8.712;2023-04-07T01:30:27;7.40;99.90
41678;DHT22;27364;49.026;8.712;2023-04-07T01:32:55;7.40;99.90
41678;DHT22;27364;49.026;8.712;2023-04-07T01:35:22;7.30;99.90
41678;DHT22;27364;49.026;8.712;2023-04-07T01:37:50;7.30;99.90
41678;DHT22;27364;49.026;8.712;2023-04-07T01:40:17;7.30;99.90
41678;DHT22;27364;49.026;8.712;2023-04-07T01:42:43;7.30;99.90
41678;DHT22;27364;49.026;8.712;2023-04-07T01:45:10;7.30;99.90
41678;DHT22;27364;49.026;8.712;2023-04-07T01:47:36;7.30;99.90
41678;DHT22;27364;49.026;8.712;2023-04-07T01:50:03;7.30;99.90
41678;DHT22;27364;49.026;8.712;2023-04-07T01:52:31;7.30;99.90
41678;DHT22;27364;49.026;8.712;2023-04-07T01:54:56;7.20;99.90
41678;DHT22;27364;49.026;8.712;2023-04-07T01:57:22;7.30;99.90
41678;DHT22;27364;49.026;8.712;2023-04-07T01:59:47;7.30;99.90
41678;DHT22;27364;49.026;8.712;2023-04-07T02:02:13;7.30;99.90
41678;DHT22;27364;49.026;8.712;2023-04-07T02:04:39;7.30;99.90
41678;DHT22;27364;49.026;8.712;2023-04-07T02:07:14;7.40;99.90
41678;DHT22;27364;49.026;8.712;2023-04-07T02:09:43;7.40;99.90
41678;DHT22;27364;49.026;8.712;2023-04-07T02:12:12;7.40;99.90
41678;DHT22;27364;49.026;8.712;2023-04-07T02:14:39;7.40;99.90
41678;DHT22;27364;49.026;8.712;2023-04-07T02:17:05;7.40;99.90
41678;DHT22;27364;49.026;8.712;2023-04-07T02:19:32;7.40;99.90
41678;DHT22;27364;49.026;8.712;2023-04-07T02:22:02;7.40;99.90
41678;DHT22;27364;49.026;8.712;2023-04-07T02:24:28;7.40;99.90
41678;DHT22;27364;49.026;8.712;2023-04-07T02:26:53;7.40;99.90
41678;DHT22;27364;49.026;8.712;2023-04-07T02:29:19;7.40;99.90
41678;DHT22;27364;49.026;8.712;2023-04-07T02:31:44;7.40;99.90
41678;DHT22;27364;49.026;8.712;2023-04-07T02:34:10;7.40;99.90
41678;DHT22;27364;49.026;8.712;2023-04-07T02:36:36;7.30;99.90
41678;DHT22;27364;49.026;8.712;2023-04-07T02:39:01;7.30;99.90
41678;DHT22;27364;49.026;8.712;2023-04-07T02:41:27;7.40;99.90
41678;DHT22;27364;49.026;8.712;2023-04-07T02:43:53;7.30;99.90
41678;DHT22;27364;49.026;8.712;2023-04-07T02:46:18;7.30;99.90
41678;DHT22;27364;49.026;8.712;2023-04-07T02:48:44;7.30;99.90
41678;DHT22;27364;49.026;8.712;2023-04-07T02:51:10;7.30;99.90
41678;DHT22;27364;49.026;8.712;2023-04-07T02:53:35;7.30;99.90
41678;DHT22;27364;49.026;8.712;2023-04-07T02:56:01;7.30;99.90
41678;DHT22;27364;49.026;8.712;2023-04-07T02:58:26;7.40;99.90
41678;DHT22;27364;49.026;8.712;2023-04-07T03:00:52;7.40;99.90
41678;DHT22;27364;49.026;8.712;2023-04-07T03:03:18;7.40;99.90
41678;DHT22;27364;49.026;8.712;2023-04-07T03:05:43;7.40;99.90
41678;DHT22;27364;49.026;8.712;2023-04-07T03:08:09;7.30;99.90
41678;DHT22;27364;49.026;8.712;2023-04-07T03:10:34;7.30;99.90
41678;DHT22;27364;49.026;8.712;2023-04-07T03:13:00;7.30;99.90
41678;DHT22;27364;49.026;8.712;2023-04-07T03:15:26;7.30;99.90
41678;DHT22;27364;49.026;8.712;2023-04-07T03:17:51;7.30;99.90
41678;DHT22;27364;49.026;8.712;2023-04-07T03:20:17;7.30;99.90
41678;DHT22;27364;49.026;8.712;2023-04-07T03:22:43;7.30;99.90
41678;DHT22;27364;49.026;8.712;2023-04-07T03:25:09;7.30;99.90
41678;DHT22;27364;49.026;8.712;2023-04-07T03:27:35;7.30;99.90
41678;DHT22;27364;49.026;8.712;2023-04-07T03:30:01;7.30;99.90
41678;DHT22;27364;49.026;8.712;2023-04-07T03:32:26;7.30;99.90
41678;DHT22;27364;49.026;8.712;2023-04-07T03:34:52;7.30;99.90
41678;DHT22;27364;49.026;8.712;2023-04-07T03:37:17;7.30;99.90
41678;DHT22;27364;49.026;8.712;2023-04-07T03:39:43;7.30;99.90
41678;DHT22;27364;49.026;8.712;2023-04-07T03:42:09;7.30;99.90
41678;DHT22;27364;49.026;8.712;2023-04-07T03:44:34;7.30;99.90
41678;DHT22;27364;49.026;8.712;2023-04-07T03:47:00;7.30;99.90
41678;DHT22;27364;49.026;8.712;2023-04-07T03:49:26;7.30;99.90
41678;DHT22;27364;49.026;8.712;2023-04-07T03:51:51;7.30;99.90
41678;DHT22;27364;49.026;8.712;2023-04-07T03:54:17;7.20;99.90
41678;DHT22;27364;49.026;8.712;2023-04-07T03:56:42;7.30;99.90
41678;DHT22;27364;49.026;8.712;2023-04-07T03:59:08;7.30;99.90
41678;DHT22;27364;49.026;8.712;2023-04-07T04:01:34;7.20;99.90
41678;DHT22;27364;49.026;8.712;2023-04-07T04:04:01;7.20;99.90
41678;DHT22;27364;49.026;8.712;2023-04-07T04:06:26;7.20;99.90
41678;DHT22;27364;49.026;8.712;2023-04-07T04:08:52;7.20;99.90
41678;DHT22;27364;49.026;8.712;2023-04-07T04:11:17;7.30;99.90
41678;DHT22;27364;49.026;8.712;2023-04-07T04:13:43;7.30;99.90
41678;DHT22;27364;49.026;8.712;2023-04-07T04:16:09;7.30;99.90
41678;DHT22;27364;49.026;8.712;2023-04-07T04:18:34;7.30;99.90
41678;DHT22;27364;49.026;8.712;2023-04-07T04:21:00;7.30;99.90
41678;DHT22;27364;49.026;8.712;2023-04-07T04:23:25;7.20;99.90
41678;DHT22;27364;49.026;8.712;2023-04-07T04:25:51;7.20;99.90
41678;DHT22;27364;49.026;8.712;2023-04-07T04:28:17;7.20;99.90
41678;DHT22;27364;49.026;8.712;2023-04-07T04:30:42;7.20;99.90
41678;DHT22;27364;49.026;8.712;2023-04-07T04:33:08;7.20;99.90
41678;DHT22;27364;49.026;8.712;2023-04-07T04:35:33;7.10;99.90
41678;DHT22;27364;49.026;8.712;2023-04-07T04:37:59;7.10;99.90
41678;DHT22;27364;49.026;8.712;2023-04-07T04:40:24;7.00;99.90
41678;DHT22;27364;49.026;8.712;2023-04-07T04:42:50;7.00;99.90
41678;DHT22;27364;49.026;8.712;2023-04-07T04:45:16;6.90;99.90
41678;DHT22;27364;49.026;8.712;2023-04-07T04:47:41;6.90;99.90
41678;DHT22;27364;49.026;8.712;2023-04-07T04:50:08;6.80;99.90
41678;DHT22;27364;49.026;8.712;2023-04-07T04:52:34;6.70;99.90
41678;DHT22;27364;49.026;8.712;2023-04-07T04:55:00;6.70;99.90
41678;DHT22;27364;49.026;8.712;2023-04-07T04:57:25;6.70;99.90
41678;DHT22;27364;49.026;8.712;2023-04-07T04:59:51;6.60;99.90
41678;DHT22;27364;49.026;8.712;2023-04-07T05:02:16;6.50;99.90
41678;DHT22;27364;49.026;8.712;2023-04-07T05:04:42;6.50;99.90
41678;DHT22;27364;49.026;8.712;2023-04-07T05:07:08;6.50;99.90
41678;DHT22;27364;49.026;8.712;2023-04-07T05:09:33;6.50;99.90
41678;DHT22;27364;49.026;8.712;2023-04-07T05:11:59;6.50;99.90
41678;DHT22;27364;49.026;8.712;2023-04-07T05:14:26;6.50;99.90
41678;DHT22;27364;49.026;8.712;2023-04-07T05:16:51;6.60;99.90
41678;DHT22;27364;49.026;8.712;2023-04-07T05:19:18;6.60;99.90
41678;DHT22;27364;49.026;8.712;2023-04-07T05:21:44;6.70;99.90
41678;DHT22;27364;49.026;8.712;2023-04-07T05:24:09;6.70;99.90
41678;DHT22;27364;49.026;8.712;2023-04-07T05:26:35;6.70;99.90
41678;DHT22;27364;49.026;8.712;2023-04-07T05:29:00;6.70;99.90
41678;DHT22;27364;49.026;8.712;2023-04-07T05:31:26;6.80;99.90
41678;DHT22;27364;49.026;8.712;2023-04-07T05:33:51;6.80;99.90
41678;DHT22;27364;49.026;8.712;2023-04-07T05:36:18;6.90;99.90
41678;DHT22;27364;49.026;8.712;2023-04-07T05:38:44;6.90;99.90
41678;DHT22;27364;49.026;8.712;2023-04-07T05:41:09;7.00;99.90
41678;DHT22;27364;49.026;8.712;2023-04-07T05:43:35;6.90;99.90
41678;DHT22;27364;49.026;8.712;2023-04-07T05:46:01;6.80;99.90
41678;DHT22;27364;49.026;8.712;2023-04-07T05:48:26;6.70;99.90
41678;DHT22;27364;49.026;8.712;2023-04-07T05:50:52;6.70;99.90
41678;DHT22;27364;49.026;8.712;2023-04-07T05:53:17;6.70;99.90
41678;DHT22;27364;49.026;8.712;2023-04-07T05:55:43;6.80;99.90
41678;DHT22;27364;49.026;8.712;2023-04-07T05:58:08;6.90;99.90
41678;DHT22;27364;49.026;8.712;2023-04-07T06:00:34;7.00;99.90
41678;DHT22;27364;49.026;8.712;2023-04-07T06:02:59;7.00;99.90
41678;DHT22;27364;49.026;8.712;2023-04-07T06:05:26;7.00;99.90
41678;DHT22;27364;49.026;8.712;2023-04-07T06:07:51;6.90;99.90
41678;DHT22;27364;49.026;8.712;2023-04-07T06:10:17;7.00;99.90
41678;DHT22;27364;49.026;8.712;2023-04-07T06:12:42;7.00;99.90
41678;DHT22;27364;49.026;8.712;2023-04-07T06:15:08;7.00;99.90
41678;DHT22;27364;49.026;8.712;2023-04-07T06:17:34;7.10;99.90
41678;DHT22;27364;49.026;8.712;2023-04-07T06:19:59;7.20;99.90
41678;DHT22;27364;49.026;8.712;2023-04-07T06:22:25;7.20;99.90
41678;DHT22;27364;49.026;8.712;2023-04-07T06:24:50;7.20;99.90
41678;DHT22;27364;49.026;8.712;2023-04-07T06:27:17;7.20;99.90
41678;DHT22;27364;49.026;8.712;2023-04-07T06:29:42;7.30;99.90
41678;DHT22;27364;49.026;8.712;2023-04-07T06:32:08;7.30;99.90
41678;DHT22;27364;49.026;8.712;2023-04-07T06:34:33;7.30;99.90
41678;DHT22;27364;49.026;8.712;2023-04-07T06:36:59;7.40;99.90
41678;DHT22;27364;49.026;8.712;2023-04-07T06:39:26;7.40;99.90
41678;DHT22;27364;49.026;8.712;2023-04-07T06:41:52;7.50;99.90
41678;DHT22;27364;49.026;8.712;2023-04-07T06:44:17;7.50;99.90
41678;DHT22;27364;49.026;8.712;2023-04-07T06:46:43;7.60;99.90
41678;DHT22;27364;49.026;8.712;2023-04-07T06:49:11;7.70;99.90
41678;DHT22;27364;49.026;8.712;2023-04-07T06:51:37;7.80;99.90
41678;DHT22;27364;49.026;8.712;2023-04-07T06:54:02;7.90;99.90
41678;DHT22;27364;49.026;8.712;2023-04-07T06:56:29;7.90;99.90
41678;DHT22;27364;49.026;8.712;2023-04-07T06:58:55;8.00;99.90
41678;DHT22;27364;49.026;8.712;2023-04-07T07:01:21;8.00;99.90
41678;DHT22;27364;49.026;8.712;2023-04-07T07:03:46;8.00;99.90
41678;DHT22;27364;49.026;8.712;2023-04-07T07:06:12;8.10;99.90
41678;DHT22;27364;49.026;8.712;2023-04-07T07:08:37;8.10;99.90
41678;DHT22;27364;49.026;8.712;2023-04-07T07:11:03;8.10;99.90
41678;DHT22;27364;49.026;8.712;2023-04-07T07:13:29;8.10;99.90
41678;DHT22;27364;49.026;8.712;2023-04-07T07:15:55;8.10;99.90
41678;DHT22;27364;49.026;8.712;2023-04-07T07:18:20;8.20;99.90
41678;DHT22;27364;49.026;8.712;2023-04-07T07:20:46;8.20;99.90
41678;DHT22;27364;49.026;8.712;2023-04-07T07:23:12;8.20;99.90
41678;DHT22;27364;49.026;8.712;2023-04-07T07:25:37;8.30;99.90
41678;DHT22;27364;49.026;8.712;2023-04-07T07:28:03;8.30;99.90
41678;DHT22;27364;49.026;8.712;2023-04-07T07:30:29;8.30;99.90
41678;DHT22;27364;49.026;8.712;2023-04-07T07:32:54;8.30;99.90
41678;DHT22;27364;49.026;8.712;2023-04-07T07:35:21;8.40;99.90
41678;DHT22;27364;49.026;8.712;2023-04-07T07:37:47;8.40;99.90
41678;DHT22;27364;49.026;8.712;2023-04-07T07:40:13;8.50;99.90
41678;DHT22;27364;49.026;8.712;2023-04-07T07:42:39;8.60;99.90
41678;DHT22;27364;49.026;8.712;2023-04-07T07:45:05;8.70;99.90
41678;DHT22;27364;49.026;8.712;2023-04-07T07:47:31;8.80;99.90
41678;DHT22;27364;49.026;8.712;2023-04-07T07:49:57;8.90;99.90
41678;DHT22;27364;49.026;8.712;2023-04-07T07:52:22;9.00;99.90
41678;DHT22;27364;49.026;8.712;2023-04-07T07:54:49;9.00;99.90
41678;DHT22;27364;49.026;8.712;2023-04-07T07:57:14;9.00;99.90
41678;DHT22;27364;49.026;8.712;2023-04-07T07:59:40;9.20;99.90
41678;DHT22;27364;49.026;8.712;2023-04-07T08:02:06;9.40;99.90
41678;DHT22;27364;49.026;8.712;2023-04-07T08:04:32;9.50;99.90
41678;DHT22;27364;49.026;8.712;2023-04-07T08:06:58;9.60;99.90
41678;DHT22;27364;49.026;8.712;2023-04-07T08:09:24;9.60;99.90
41678;DHT22;27364;49.026;8.712;2023-04-07T08:11:49;9.70;99.90
41678;DHT22;27364;49.026;8.712;2023-04-07T08:14:16;9.80;99.90
41678;DHT22;27364;49.026;8.712;2023-04-07T08:16:42;9.90;99.90
41678;DHT22;27364;49.026;8.712;2023-04-07T08:19:08;9.90;99.90
41678;DHT22;27364;49.026;8.712;2023-04-07T08:21:33;9.90;99.90
41678;DHT22;27364;49.026;8.712;2023-04-07T08:23:59;9.90;99.90
41678;DHT22;27364;49.026;8.712;2023-04-07T08:26:25;10.10;99.90
41678;DHT22;27364;49.026;8.712;2023-04-07T08:28:51;10.20;99.90
41678;DHT22;27364;49.026;8.712;2023-04-07T08:31:17;10.40;99.90
41678;DHT22;27364;49.026;8.712;2023-04-07T08:33:43;10.40;99.90
41678;DHT22;27364;49.026;8.712;2023-04-07T08:36:09;10.50;99.90
41678;DHT22;27364;49.026;8.712;2023-04-07T08:38:34;10.60;99.90
41678;DHT22;27364;49.026;8.712;2023-04-07T08:41:07;10.80;99.90
41678;DHT22;27364;49.026;8.712;2023-04-07T08:43:35;11.00;99.90
41678;DHT22;27364;49.026;8.712;2023-04-07T08:46:02;11.10;99.90
41678;DHT22;27364;49.026;8.712;2023-04-07T08:48:29;11.10;99.90
41678;DHT22;27364;49.026;8.712;2023-04-07T08:51:05;11.30;99.90
41678;DHT22;27364;49.026;8.712;2023-04-07T08:53:39;11.50;99.90
41678;DHT22;27364;49.026;8.712;2023-04-07T08:56:06;11.70;99.90
41678;DHT22;27364;49.026;8.712;2023-04-07T08:58:35;11.70;99.90
41678;DHT22;27364;49.026;8.712;2023-04-07T09:01:03;11.80;99.90
41678;DHT22;27364;49.026;8.712;2023-04-07T09:03:29;11.80;99.90
41678;DHT22;27364;49.026;8.712;2023-04-07T09:05:57;11.80;99.90
41678;DHT22;27364;49.026;8.712;2023-04-07T09:08:23;12.00;99.90
41678;DHT22;27364;49.026;8.712;2023-04-07T09:10:49;12.10;99.90
41678;DHT22;27364;49.026;8.712;2023-04-07T09:13:14;12.30;99.90
41678;DHT22;27364;49.026;8.712;2023-04-07T09:15:40;12.40;99.90
41678;DHT22;27364;49.026;8.712;2023-04-07T09:18:06;12.30;99.90
41678;DHT22;27364;49.026;8.712;2023-04-07T09:23:31;11.90;99.90
41678;DHT22;27364;49.026;8.712;2023-04-07T09:28:51;11.50;99.90
41678;DHT22;27364;49.026;8.712;2023-04-07T09:31:17;11.30;99.90
41678;DHT22;27364;49.026;8.712;2023-04-07T09:33:46;11.30;99.90
41678;DHT22;27364;49.026;8.712;2023-04-07T09:36:11;11.50;99.90
41678;DHT22;27364;49.026;8.712;2023-04-07T09:38:38;12.00;99.90
41678;DHT22;27364;49.026;8.712;2023-04-07T09:43:35;12.70;99.90
41678;DHT22;27364;49.026;8.712;2023-04-07T09:46:16;12.80;99.90
41678;DHT22;27364;49.026;8.712;2023-04-07T09:48:45;12.60;99.90
41678;DHT22;27364;49.026;8.712;2023-04-07T09:51:17;12.60;99.90
41678;DHT22;27364;49.026;8.712;2023-04-07T09:53:49;12.60;99.90
41678;DHT22;27364;49.026;8.712;2023-04-07T09:56:17;12.30;99.90
41678;DHT22;27364;49.026;8.712;2023-04-07T09:58:45;12.20;99.90
41678;DHT22;27364;49.026;8.712;2023-04-07T10:01:13;12.00;99.90
41678;DHT22;27364;49.026;8.712;2023-04-07T10:03:39;11.70;99.90
41678;DHT22;27364;49.026;8.712;2023-04-07T10:06:05;11.60;99.90
41678;DHT22;27364;49.026;8.712;2023-04-07T10:08:33;11.90;99.90
41678;DHT22;27364;49.026;8.712;2023-04-07T10:11:00;12.20;99.90
41678;DHT22;27364;49.026;8.712;2023-04-07T10:13:29;12.60;99.90
41678;DHT22;27364;49.026;8.712;2023-04-07T10:15:55;12.80;99.90
41678;DHT22;27364;49.026;8.712;2023-04-07T10:18:22;13.40;99.90
41678;DHT22;27364;49.026;8.712;2023-04-07T10:20:51;13.50;99.90
41678;DHT22;27364;49.026;8.712;2023-04-07T10:23:22;13.50;99.90
41678;DHT22;27364;49.026;8.712;2023-04-07T10:25:50;13.60;99.90
41678;DHT22;27364;49.026;8.712;2023-04-07T10:28:17;13.70;99.90
41678;DHT22;27364;49.026;8.712;2023-04-07T10:30:43;14.00;99.90
41678;DHT22;27364;49.026;8.712;2023-04-07T10:33:09;13.90;99.90
41678;DHT22;27364;49.026;8.712;2023-04-07T10:36:06;13.80;99.90
41678;DHT22;27364;49.026;8.712;2023-04-07T10:38:32;13.60;99.90
41678;DHT22;27364;49.026;8.712;2023-04-07T10:40:57;13.50;99.90
41678;DHT22;27364;49.026;8.712;2023-04-07T10:43:37;13.40;99.90
41678;DHT22;27364;49.026;8.712;2023-04-07T10:46:04;13.20;99.90
41678;DHT22;27364;49.026;8.712;2023-04-07T10:48:29;12.90;99.90
41678;DHT22;27364;49.026;8.712;2023-04-07T10:53:28;12.50;99.90
41678;DHT22;27364;49.026;8.712;2023-04-07T10:55:54;12.40;99.90
41678;DHT22;27364;49.026;8.712;2023-04-07T10:58:28;12.40;99.90
41678;DHT22;27364;49.026;8.712;2023-04-07T12:13:24;12.80;99.90
41678;DHT22;27364;49.026;8.712;2023-04-07T12:15:49;13.10;99.90
41678;DHT22;27364;49.026;8.712;2023-04-07T12:18:16;13.80;99.90
41678;DHT22;27364;49.026;8.712;2023-04-07T12:20:43;14.20;99.90
41678;DHT22;27364;49.026;8.712;2023-04-07T12:23:10;14.60;99.90
41678;DHT22;27364;49.026;8.712;2023-04-07T12:25:35;14.60;99.90
41678;DHT22;27364;49.026;8.712;2023-04-07T12:28:01;14.40;99.10
41678;DHT22;27364;49.026;8.712;2023-04-07T12:30:26;14.60;99.90
41678;DHT22;27364;49.026;8.712;2023-04-07T12:32:52;14.60;99.90
41678;DHT22;27364;49.026;8.712;2023-04-07T12:35:17;14.40;99.30
41678;DHT22;27364;49.026;8.712;2023-04-07T12:37:43;14.20;99.90
41678;DHT22;27364;49.026;8.712;2023-04-07T12:40:09;13.80;99.40
41678;DHT22;27364;49.026;8.712;2023-04-07T12:42:34;13.80;99.90
41678;DHT22;27364;49.026;8.712;2023-04-07T12:45:00;14.10;99.90
41678;DHT22;27364;49.026;8.712;2023-04-07T12:47:27;14.60;99.90
41678;DHT22;27364;49.026;8.712;2023-04-07T12:49:52;15.20;99.90
41678;DHT22;27364;49.026;8.712;2023-04-07T12:52:18;15.30;98.30
41678;DHT22;27364;49.026;8.712;2023-04-07T12:54:43;14.80;98.10
41678;DHT22;27364;49.026;8.712;2023-04-07T12:57:09;14.70;99.90
41678;DHT22;27364;49.026;8.712;2023-04-07T12:59:35;15.20;99.90
41678;DHT22;27364;49.026;8.712;2023-04-07T13:02:01;15.60;99.90
41678;DHT22;27364;49.026;8.712;2023-04-07T13:04:27;15.80;98.70
41678;DHT22;27364;49.026;8.712;2023-04-07T13:06:54;15.90;97.90
41678;DHT22;27364;49.026;8.712;2023-04-07T13:09:20;16.20;97.50
41678;DHT22;27364;49.026;8.712;2023-04-07T13:11:45;16.50;95.80
41678;DHT22;27364;49.026;8.712;2023-04-07T13:14:11;16.70;94.90
41678;DHT22;27364;49.026;8.712;2023-04-07T13:16:37;17.10;93.20
41678;DHT22;27364;49.026;8.712;2023-04-07T13:19:03;17.30;90.90
41678;DHT22;27364;49.026;8.712;2023-04-07T13:21:28;17.50;91.60
41678;DHT22;27364;49.026;8.712;2023-04-07T13:23:54;17.60;84.50
41678;DHT22;27364;49.026;8.712;2023-04-07T13:26:19;17.70;83.00
41678;DHT22;27364;49.026;8.712;2023-04-07T13:28:45;17.70;82.30
41678;DHT22;27364;49.026;8.712;2023-04-07T13:31:12;17.80;81.70
41678;DHT22;27364;49.026;8.712;2023-04-07T13:33:40;17.90;82.10
41678;DHT22;27364;49.026;8.712;2023-04-07T13:36:05;17.50;79.70
41678;DHT22;27364;49.026;8.712;2023-04-07T13:38:32;17.30;82.40
41678;DHT22;27364;49.026;8.712;2023-04-07T13:40:57;16.80;79.00
41678;DHT22;27364;49.026;8.712;2023-04-07T13:43:23;16.30;79.80
41678;DHT22;27364;49.026;8.712;2023-04-07T13:45:48;15.70;79.90
41678;DHT22;27364;49.026;8.712;2023-04-07T13:48:14;15.50;79.70
41678;DHT22;27364;49.026;8.712;2023-04-07T13:50:40;15.10;80.50
41678;DHT22;27364;49.026;8.712;2023-04-07T13:53:05;15.00;81.50
41678;DHT22;27364;49.026;8.712;2023-04-07T13:55:31;14.80;81.10
41678;DHT22;27364;49.026;8.712;2023-04-07T13:57:57;14.40;83.30
41678;DHT22;27364;49.026;8.712;2023-04-07T14:00:22;14.20;84.80
41678;DHT22;27364;49.026;8.712;2023-04-07T14:02:48;14.10;86.10
41678;DHT22;27364;49.026;8.712;2023-04-07T14:05:13;14.00;87.90
41678;DHT22;27364;49.026;8.712;2023-04-07T14:07:39;14.00;90.60
41678;DHT22;27364;49.026;8.712;2023-04-07T14:10:05;13.90;91.90
41678;DHT22;27364;49.026;8.712;2023-04-07T14:12:30;13.80;92.00
41678;DHT22;27364;49.026;8.712;2023-04-07T14:14:56;14.00;92.00
41678;DHT22;27364;49.026;8.712;2023-04-07T14:17:22;14.10;92.60
41678;DHT22;27364;49.026;8.712;2023-04-07T14:19:47;14.20;92.70
41678;DHT22;27364;49.026;8.712;2023-04-07T14:22:13;14.10;92.20
41678;DHT22;27364;49.026;8.712;2023-04-07T14:24:39;14.10;91.20
41678;DHT22;27364;49.026;8.712;2023-04-07T14:27:04;14.00;90.80
41678;DHT22;27364;49.026;8.712;2023-04-07T14:29:31;13.90;91.60
41678;DHT22;27364;49.026;8.712;2023-04-07T14:31:56;13.90;92.30
41678;DHT22;27364;49.026;8.712;2023-04-07T14:34:22;14.40;92.40
41678;DHT22;27364;49.026;8.712;2023-04-07T14:36:55;15.00;90.30
41678;DHT22;27364;49.026;8.712;2023-04-07T14:39:22;15.10;89.90
41678;DHT22;27364;49.026;8.712;2023-04-07T14:41:48;15.20;86.50
41678;DHT22;27364;49.026;8.712;2023-04-07T14:44:14;15.20;88.80
41678;DHT22;27364;49.026;8.712;2023-04-07T14:46:40;15.60;89.00
41678;DHT22;27364;49.026;8.712;2023-04-07T14:49:07;15.80;86.70
41678;DHT22;27364;49.026;8.712;2023-04-07T14:51:32;16.40;87.20
41678;DHT22;27364;49.026;8.712;2023-04-07T14:53:58;16.90;86.50
41678;DHT22;27364;49.026;8.712;2023-04-07T14:56:24;17.40;80.50
41678;DHT22;27364;49.026;8.712;2023-04-07T14:58:50;17.40;76.80
41678;DHT22;27364;49.026;8.712;2023-04-07T15:01:16;17.90;76.80
41678;DHT22;27364;49.026;8.712;2023-04-07T15:03:42;18.20;72.70
41678;DHT22;27364;49.026;8.712;2023-04-07T15:06:08;18.50;75.20
41678;DHT22;27364;49.026;8.712;2023-04-07T15:08:35;18.40;73.10
41678;DHT22;27364;49.026;8.712;2023-04-07T15:11:03;18.70;71.80
41678;DHT22;27364;49.026;8.712;2023-04-07T15:13:30;18.70;71.70
41678;DHT22;27364;49.026;8.712;2023-04-07T15:15:55;18.80;74.60
41678;DHT22;27364;49.026;8.712;2023-04-07T15:18:20;19.00;73.30
41678;DHT22;27364;49.026;8.712;2023-04-07T15:20:46;18.50;72.10
41678;DHT22;27364;49.026;8.712;2023-04-07T15:23:12;17.80;74.00
41678;DHT22;27364;49.026;8.712;2023-04-07T15:25:39;17.00;75.30
41678;DHT22;27364;49.026;8.712;2023-04-07T15:28:05;16.40;80.70
41678;DHT22;27364;49.026;8.712;2023-04-07T15:30:30;15.80;82.00
41678;DHT22;27364;49.026;8.712;2023-04-07T15:33:02;15.40;83.80
41678;DHT22;27364;49.026;8.712;2023-04-07T15:35:28;15.10;87.10
41678;DHT22;27364;49.026;8.712;2023-04-07T15:37:54;14.80;88.90
41678;DHT22;27364;49.026;8.712;2023-04-07T15:40:20;14.60;90.00
41678;DHT22;27364;49.026;8.712;2023-04-07T15:42:45;14.40;90.70
41678;DHT22;27364;49.026;8.712;2023-04-07T15:45:11;14.60;92.40
41678;DHT22;27364;49.026;8.712;2023-04-07T15:47:36;14.80;92.30
41678;DHT22;27364;49.026;8.712;2023-04-07T15:50:02;14.80;92.60
41678;DHT22;27364;49.026;8.712;2023-04-07T15:52:28;14.80;92.10
41678;DHT22;27364;49.026;8.712;2023-04-07T15:54:54;14.80;91.50
41678;DHT22;27364;49.026;8.712;2023-04-07T15:57:19;14.90;90.60
41678;DHT22;27364;49.026;8.712;2023-04-07T15:59:46;15.10;90.70
41678;DHT22;27364;49.026;8.712;2023-04-07T16:02:12;15.20;91.10
41678;DHT22;27364;49.026;8.712;2023-04-07T16:04:37;15.10;90.30
41678;DHT22;27364;49.026;8.712;2023-04-07T16:07:03;14.90;91.10
41678;DHT22;27364;49.026;8.712;2023-04-07T16:09:28;14.70;91.30
41678;DHT22;27364;49.026;8.712;2023-04-07T16:11:54;14.40;91.90
41678;DHT22;27364;49.026;8.712;2023-04-07T16:14:19;14.20;93.00
41678;DHT22;27364;49.026;8.712;2023-04-07T16:16:45;14.00;94.50
41678;DHT22;27364;49.026;8.712;2023-04-07T16:19:10;13.70;95.20
41678;DHT22;27364;49.026;8.712;2023-04-07T16:21:37;13.70;96.00
41678;DHT22;27364;49.026;8.712;2023-04-07T16:24:04;13.50;95.90
41678;DHT22;27364;49.026;8.712;2023-04-07T16:26:30;13.30;96.00
41678;DHT22;27364;49.026;8.712;2023-04-07T16:28:55;13.10;97.20
41678;DHT22;27364;49.026;8.712;2023-04-07T16:31:21;12.90;97.20
41678;DHT22;27364;49.026;8.712;2023-04-07T16:33:48;12.80;98.40
41678;DHT22;27364;49.026;8.712;2023-04-07T16:36:13;12.70;99.10
41678;DHT22;27364;49.026;8.712;2023-04-07T16:38:39;12.70;99.90
41678;DHT22;27364;49.026;8.712;2023-04-07T16:41:06;12.70;99.90
41678;DHT22;27364;49.026;8.712;2023-04-07T16:43:32;12.60;99.50
41678;DHT22;27364;49.026;8.712;2023-04-07T16:45:57;12.50;99.60
41678;DHT22;27364;49.026;8.712;2023-04-07T16:48:24;12.50;99.20
41678;DHT22;27364;49.026;8.712;2023-04-07T16:50:50;12.40;98.90
41678;DHT22;27364;49.026;8.712;2023-04-07T16:53:15;12.40;99.00
41678;DHT22;27364;49.026;8.712;2023-04-07T16:55:41;12.40;99.90
41678;DHT22;27364;49.026;8.712;2023-04-07T16:58:06;12.40;99.90
41678;DHT22;27364;49.026;8.712;2023-04-07T17:00:32;12.50;99.90
41678;DHT22;27364;49.026;8.712;2023-04-07T17:02:58;12.50;99.90
41678;DHT22;27364;49.026;8.712;2023-04-07T17:05:23;12.50;99.90